Country Club Hills, Illinois
Current Conditions -  °F | °C
As of 7:35 PM on Saturday 20 Dec 2014 (Local Time) from KIGQ Reporting Station
Overcast Overcast  
Wind Chill: 32°   Ceiling: 6000
Heat Index: 32°   Visibility: 10mi
Dew Point: 27°   Wind: 3mph
Humidity: 83%   Direction: 190°S
Pressure: 30.27"   Gusts: NA
Location:  41.56°N, 87.72°W
Report Text: KIGQ 210135Z AUTO 19003KT 10SM OVC060 00/M03 A3027 RMK AO2 T10021028
Loading
Personal Weather Stations






























Interactive Weather Map New forecast layout! Learn more

10-Day Weather Forecast

Advertisements
Track Severe Weather on mobile